Time;durP1;ratioP1;P1;durP2;ratioP2;P2;SDS_P1;SDS_P2;PMS_P1;PMS_P2;Temp;Humidity;BMP_temperature;BMP_pressure;BME280_temperature;BME280_humidity;BME280_pressure;Samples;Min_cycle;Max_cycle;Signal;HPM_P1;HPM_P2
2023/10/12 00:02:28;;;;;;;8.95;1.60;;;17.50;99.90;;;;;;4952321;28;20027;-68
2023/10/12 00:05:00;;;;;;;4.82;1.98;;;17.50;99.90;;;;;;4952346;28;20392;-68
2023/10/12 00:07:36;;;;;;;11.60;3.08;;;17.50;99.90;;;;;;4952599;28;20039;-68
2023/10/12 00:12:47;;;;;;;4.25;1.80;;;17.50;99.90;;;;;;4953042;28;20159;-69
2023/10/12 00:15:25;;;;;;;5.00;2.40;;;17.50;99.90;;;;;;4930676;29;20046;-69
2023/10/12 00:17:58;;;;;;;3.83;2.10;;;17.50;99.90;;;;;;4948875;29;20034;-69
2023/10/12 00:23:09;;;;;;;12.65;3.17;;;17.50;99.90;;;;;;4948266;28;20027;-69
2023/10/12 00:25:58;;;;;;;4.05;2.17;;;17.60;99.90;;;;;;4953322;29;20142;-69
2023/10/12 00:28:29;;;;;;;4.07;1.88;;;17.60;99.90;;;;;;4953203;29;20086;-69
2023/10/12 00:30:56;;;;;;;15.95;2.22;;;17.60;99.90;;;;;;4953424;29;20063;-69
2023/10/12 00:33:23;;;;;;;10.30;2.50;;;17.70;99.90;;;;;;4951124;29;20064;-68
2023/10/12 00:35:52;;;;;;;7.50;2.20;;;17.70;99.90;;;;;;4954246;29;20031;-68
2023/10/12 00:38:23;;;;;;;11.82;2.63;;;17.60;99.90;;;;;;4954995;28;20059;-68
2023/10/12 00:40:57;;;;;;;6.38;2.58;;;17.70;99.90;;;;;;4956102;28;20038;-68
2023/10/12 00:43:32;;;;;;;4.18;2.20;;;17.70;99.90;;;;;;4950515;29;20087;-68
2023/10/12 00:46:01;;;;;;;8.63;2.42;;;17.70;99.90;;;;;;4951420;29;20062;-68
2023/10/12 00:48:29;;;;;;;6.78;2.85;;;17.70;99.90;;;;;;4936624;29;20038;-68
2023/10/12 00:50:57;;;;;;;8.20;1.83;;;17.70;99.90;;;;;;4949645;29;20078;-68
2023/10/12 00:53:31;;;;;;;6.57;2.30;;;17.60;99.90;;;;;;4952753;29;20050;-68
2023/10/12 00:55:57;;;;;;;7.38;2.35;;;17.60;99.90;;;;;;4955150;28;20027;-68
2023/10/12 00:58:23;;;;;;;8.02;2.38;;;17.70;99.90;;;;;;4951202;29;20534;-68
2023/10/12 01:00:52;;;;;;;5.45;2.25;;;17.70;99.90;;;;;;4969271;28;20071;-68
2023/10/12 01:08:42;;;;;;;3.53;1.70;;;17.80;99.90;;;;;;4954230;29;20038;-68
2023/10/12 01:14:03;;;;;;;4.93;2.08;;;17.80;99.90;;;;;;4954057;28;20091;-68
2023/10/12 01:19:23;;;;;;;3.47;1.70;;;17.90;99.90;;;;;;4950879;29;20082;-68
2023/10/12 01:21:55;;;;;;;5.25;2.15;;;17.90;99.90;;;;;;4954653;28;20042;-68
2023/10/12 01:24:30;;;;;;;4.78;1.73;;;17.90;99.90;;;;;;4952408;28;20023;-68
2023/10/12 01:26:56;;;;;;;2.22;1.08;;;18.00;99.90;;;;;;4951921;29;20598;-68
2023/10/12 01:29:25;;;;;;;5.00;1.88;;;17.90;99.90;;;;;;4955197;28;20031;-68
2023/10/12 01:34:36;;;;;;;6.45;2.40;;;17.90;99.90;;;;;;4952770;28;20033;-68
2023/10/12 01:37:21;;;;;;;5.72;1.80;;;17.90;99.90;;;;;;4950692;29;20054;-68
2023/10/12 01:42:42;;;;;;;8.65;2.60;;;17.70;99.90;;;;;;4953003;29;20066;-68
2023/10/12 01:45:18;;;;;;;3.87;2.17;;;17.70;99.90;;;;;;4953810;28;20024;-68
2023/10/12 01:47:55;;;;;;;9.10;1.92;;;17.70;99.90;;;;;;4936063;29;20028;-68
2023/10/12 01:50:24;;;;;;;3.78;2.00;;;17.80;99.90;;;;;;4950743;29;20575;-68
2023/10/12 01:52:58;;;;;;;4.97;2.50;;;17.80;99.90;;;;;;4955046;28;20039;-68
2023/10/12 01:55:31;;;;;;;8.23;2.28;;;17.80;99.90;;;;;;4954336;28;20035;-69
2023/10/12 01:57:58;;;;;;;10.85;2.72;;;17.80;99.90;;;;;;4955132;28;20039;-68
2023/10/12 02:00:28;;;;;;;4.43;2.42;;;17.80;99.90;;;;;;4945561;29;20040;-68
2023/10/12 02:03:15;;;;;;;3.65;2.13;;;17.80;99.90;;;;;;4945890;29;20111;-68
2023/10/12 02:05:47;;;;;;;6.53;2.28;;;17.80;99.90;;;;;;4950019;29;20392;-69
2023/10/12 02:08:20;;;;;;;8.60;2.22;;;17.80;99.90;;;;;;4935622;29;20035;-68
2023/10/12 02:10:58;;;;;;;4.20;2.13;;;17.80;99.90;;;;;;4953066;29;20030;-68
2023/10/12 02:13:24;;;;;;;5.03;1.95;;;17.80;99.90;;;;;;4937849;28;20034;-68
2023/10/12 02:15:52;;;;;;;7.03;2.80;;;17.70;99.90;;;;;;4948257;28;20034;-67
2023/10/12 02:18:19;;;;;;;3.88;1.63;;;17.70;99.90;;;;;;4951921;29;20434;-68
2023/10/12 02:26:38;;;;;;;12.57;2.47;;;17.60;99.90;;;;;;4939650;29;20060;-68
2023/10/12 02:34:31;;;;;;;4.83;3.23;;;17.40;99.90;;;;;;4947795;29;20039;-67
2023/10/12 02:39:39;;;;;;;7.10;2.22;;;17.40;99.90;;;;;;4953618;28;19919;-68
2023/10/12 02:42:17;;;;;;;4.00;1.65;;;17.40;99.90;;;;;;4929467;29;20395;-68
2023/10/12 02:47:23;;;;;;;8.38;2.25;;;17.30;99.90;;;;;;4933119;29;20024;-68
2023/10/12 02:50:06;;;;;;;3.15;2.00;;;17.40;99.90;;;;;;4943343;29;20126;-68
2023/10/12 02:52:32;;;;;;;7.60;3.00;;;17.30;99.90;;;;;;4941832;29;20476;-68
2023/10/12 02:57:54;;;;;;;3.30;1.90;;;17.40;99.90;;;;;;4947580;29;20050;-68
2023/10/12 03:00:23;;;;;;;8.68;2.15;;;17.40;99.90;;;;;;4964146;28;20139;-68
2023/10/12 03:02:53;;;;;;;4.20;1.75;;;17.30;99.90;;;;;;4944042;28;20047;-68
2023/10/12 03:05:30;;;;;;;11.73;2.78;;;17.30;99.90;;;;;;4949837;29;20066;-68
2023/10/12 03:07:58;;;;;;;10.77;1.80;;;17.20;99.90;;;;;;4947413;29;20031;-68
2023/10/12 03:10:29;;;;;;;8.57;2.70;;;17.20;99.90;;;;;;4922510;29;20070;-68
2023/10/12 03:12:55;;;;;;;5.57;2.42;;;17.10;99.90;;;;;;4953541;28;20035;-68
2023/10/12 03:15:46;;;;;;;4.55;1.98;;;17.10;99.90;;;;;;4950031;28;20115;-68
2023/10/12 03:18:12;;;;;;;7.03;1.85;;;17.10;99.90;;;;;;4933975;29;20024;-68
2023/10/12 03:20:38;;;;;;;4.28;2.22;;;17.10;99.90;;;;;;4947121;29;20086;-69
2023/10/12 03:23:19;;;;;;;5.82;2.70;;;17.00;99.90;;;;;;4934055;29;20087;-70
2023/10/12 03:25:46;;;;;;;4.32;1.85;;;17.00;99.90;;;;;;4952722;28;20094;-68
2023/10/12 03:33:46;;;;;;;8.45;2.28;;;17.00;99.90;;;;;;4946998;29;20039;-67
2023/10/12 03:36:23;;;;;;;5.82;2.15;;;17.00;99.90;;;;;;4952537;28;20090;-68
2023/10/12 03:47:14;;;;;;;10.07;2.42;;;17.00;99.90;;;;;;4945305;28;20075;-68
2023/10/12 03:49:57;;;;;;;4.80;2.50;;;17.00;99.90;;;;;;4961290;23;20044;-73
2023/10/12 03:52:42;;;;;;;5.07;2.38;;;17.00;99.90;;;;;;4952534;29;20027;-72
2023/10/12 04:18:42;;;;;;;6.15;2.25;;;16.90;99.90;;;;;;4955939;28;20039;-74
2023/10/12 04:21:10;;;;;;;7.10;2.30;;;16.90;99.90;;;;;;4946678;28;20122;-71
2023/10/12 04:23:48;;;;;;;3.95;1.83;;;16.90;99.90;;;;;;4956715;28;20031;-72
2023/10/12 04:28:42;;;;;;;6.32;2.10;;;16.90;99.90;;;;;;4943283;28;20074;-71
2023/10/12 04:33:43;;;;;;;7.72;2.50;;;16.90;99.90;;;;;;4943826;28;20066;-71
2023/10/12 04:36:13;;;;;;;6.28;1.98;;;16.90;99.90;;;;;;4949060;28;20086;-70
2023/10/12 04:43:54;;;;;;;5.45;1.83;;;16.90;99.90;;;;;;4954758;28;20035;-70
2023/10/12 04:48:50;;;;;;;9.32;2.83;;;16.90;99.90;;;;;;4939765;28;20027;-70
2023/10/12 04:51:19;;;;;;;6.32;2.13;;;16.90;99.90;;;;;;4953362;28;20031;-70
2023/10/12 04:54:04;;;;;;;4.97;2.72;;;16.90;99.90;;;;;;4942012;28;20114;-70
2023/10/12 04:56:36;;;;;;;12.82;3.00;;;16.80;99.90;;;;;;4941650;28;20043;-70
2023/10/12 04:59:17;;;;;;;6.78;2.45;;;16.80;99.90;;;;;;4942480;28;20046;-70
2023/10/12 05:09:51;;;;;;;11.13;3.72;;;16.70;99.90;;;;;;4947721;28;20031;-70
2023/10/12 05:12:23;;;;;;;13.57;4.10;;;16.80;99.90;;;;;;4946414;28;20037;-69
2023/10/12 05:14:55;;;;;;;7.68;3.28;;;16.90;99.90;;;;;;4960414;28;20027;-70
2023/10/12 05:17:24;;;;;;;7.93;2.38;;;17.00;99.90;;;;;;4944439;28;20396;-73
2023/10/12 05:19:53;;;;;;;6.47;2.85;;;17.00;99.90;;;;;;4958757;28;20030;-72
2023/10/12 05:22:22;;;;;;;6.03;2.45;;;17.00;99.90;;;;;;4937517;28;20396;-74
2023/10/12 05:24:48;;;;;;;6.60;2.53;;;17.00;99.90;;;;;;4938270;28;20028;-73
2023/10/12 05:27:23;;;;;;;8.05;2.58;;;17.10;99.90;;;;;;4936328;28;20032;-72
2023/10/12 05:29:52;;;;;;;5.20;2.38;;;17.20;99.90;;;;;;4939838;28;20028;-72
2023/10/12 05:32:22;;;;;;;9.52;2.60;;;17.20;99.90;;;;;;4937657;28;20122;-74
2023/10/12 05:34:52;;;;;;;5.90;2.35;;;17.20;99.90;;;;;;4948103;28;20032;-73
2023/10/12 05:37:26;;;;;;;3.53;1.98;;;17.20;99.90;;;;;;4940137;28;20392;-70
2023/10/12 05:39:55;;;;;;;8.80;3.00;;;17.30;99.90;;;;;;4939811;28;20087;-74
2023/10/12 05:42:24;;;;;;;8.68;2.75;;;17.30;99.90;;;;;;4943501;28;20046;-72
2023/10/12 05:44:52;;;;;;;6.05;2.72;;;17.30;99.90;;;;;;4952592;28;20025;-73
2023/10/12 05:47:28;;;;;;;6.43;2.40;;;17.30;99.90;;;;;;4928192;28;20538;-75
2023/10/12 05:49:57;;;;;;;6.40;2.40;;;17.30;99.90;;;;;;4941108;28;20031;-76
2023/10/12 05:52:24;;;;;;;8.75;3.20;;;17.20;99.90;;;;;;4943887;28;20035;-75
2023/10/12 05:54:57;;;;;;;7.95;2.90;;;17.20;99.90;;;;;;4938930;28;20031;-74
2023/10/12 05:57:27;;;;;;;6.47;2.42;;;17.20;99.90;;;;;;4942874;28;20039;-73
2023/10/12 05:59:52;;;;;;;10.32;3.50;;;17.30;99.90;;;;;;4937111;28;20486;-74
2023/10/12 06:02:18;;;;;;;4.35;2.17;;;17.30;99.90;;;;;;4941907;28;20034;-73
2023/10/12 06:04:44;;;;;;;6.25;2.75;;;17.40;99.90;;;;;;4950738;28;20050;-73
2023/10/12 06:07:11;;;;;;;8.80;3.28;;;17.40;99.90;;;;;;4966862;28;20046;-74
2023/10/12 06:09:37;;;;;;;8.65;2.72;;;17.50;99.90;;;;;;4948978;28;20151;-75
2023/10/12 06:12:07;;;;;;;4.22;2.42;;;17.50;99.90;;;;;;4936946;28;20046;-75
2023/10/12 06:14:38;;;;;;;6.25;2.97;;;17.30;99.90;;;;;;4944342;28;20361;-74
2023/10/12 06:17:27;;;;;;;;;;;17.30;99.90;;;;;;4957230;28;20032;-74
2023/10/12 06:19:55;;;;;;;4.90;2.72;;;17.20;99.90;;;;;;4946776;28;20327;-73
2023/10/12 06:22:23;;;;;;;22.15;3.35;;;17.20;99.90;;;;;;4935819;28;20042;-75
2023/10/12 06:24:52;;;;;;;17.85;4.13;;;17.20;99.90;;;;;;4936101;28;20050;-75
2023/10/12 06:30:05;;;;;;;8.95;2.65;;;17.10;99.90;;;;;;4934837;28;20036;-74
2023/10/12 06:32:31;;;;;;;8.95;2.75;;;17.20;99.90;;;;;;4935385;28;20356;-74
2023/10/12 06:40:47;;;;;;;7.38;2.83;;;17.30;99.90;;;;;;4917869;29;20227;-75
2023/10/12 06:45:51;;;;;;;9.88;2.80;;;17.50;99.90;;;;;;4917466;29;20040;-74
2023/10/12 06:51:11;;;;;;;11.73;2.83;;;17.50;99.90;;;;;;4919704;29;20072;-74
2023/10/12 06:53:40;;;;;;;8.07;2.78;;;17.50;99.90;;;;;;4914267;29;20047;-74
2023/10/12 07:04:15;;;;;;;19.20;4.00;;;17.60;99.90;;;;;;4938646;29;20044;-74
2023/10/12 07:07:00;;;;;;;7.95;3.05;;;17.60;99.90;;;;;;4930000;29;20542;-74
2023/10/12 07:09:44;;;;;;;6.15;2.53;;;17.70;99.90;;;;;;4921001;29;20050;-75
2023/10/12 07:12:20;;;;;;;5.13;2.55;;;17.50;99.90;;;;;;4926204;28;20523;-74
2023/10/12 07:14:46;;;;;;;8.27;3.33;;;17.60;99.90;;;;;;4949535;28;20063;-75
2023/10/12 07:17:16;;;;;;;7.82;3.05;;;17.70;99.90;;;;;;4945167;28;20075;-75
2023/10/12 07:19:53;;;;;;;7.40;2.25;;;17.80;99.90;;;;;;4935530;29;20491;-74
2023/10/12 07:22:20;;;;;;;6.78;3.13;;;18.00;99.90;;;;;;4942211;28;20059;-75
2023/10/12 07:24:53;;;;;;;9.07;2.67;;;18.00;99.90;;;;;;4945843;28;20416;-75
2023/10/12 07:27:24;;;;;;;10.93;3.33;;;18.10;99.90;;;;;;4936092;28;20539;-74
2023/10/12 07:30:15;;;;;;;8.93;2.83;;;18.20;99.90;;;;;;4932019;29;20078;-74
2023/10/12 07:32:56;;;;;;;;;;;18.20;99.90;;;;;;4945980;28;20111;-75
2023/10/12 07:35:42;;;;;;;8.40;2.88;;;18.20;99.90;;;;;;4946904;28;19918;-74
2023/10/12 07:38:14;;;;;;;6.65;3.17;;;18.30;99.90;;;;;;4933801;28;20488;-75
2023/10/12 07:40:51;;;;;;;7.68;2.72;;;18.40;99.90;;;;;;4936794;28;20452;-75
2023/10/12 07:43:18;;;;;;;8.43;2.30;;;18.40;99.90;;;;;;4937024;28;20051;-75
2023/10/12 07:45:50;;;;;;;6.38;2.65;;;18.60;99.90;;;;;;4948876;28;20435;-74
2023/10/12 07:48:41;;;;;;;10.52;3.42;;;18.70;99.90;;;;;;4935187;28;20079;-72
2023/10/12 07:51:28;;;;;;;8.40;2.85;;;18.70;99.90;;;;;;4941387;28;20047;-72
2023/10/12 07:53:57;;;;;;;6.88;2.75;;;18.90;99.90;;;;;;4941868;28;20046;-73
2023/10/12 07:56:30;;;;;;;9.60;3.42;;;18.80;99.90;;;;;;4947357;28;20035;-72
2023/10/12 07:58:59;;;;;;;10.88;3.00;;;18.90;99.90;;;;;;4947362;28;20027;-73
2023/10/12 08:01:50;;;;;;;10.15;3.45;;;19.10;99.90;;;;;;4948526;28;20396;-73
2023/10/12 08:04:31;;;;;;;6.78;2.33;;;19.20;99.90;;;;;;4938412;28;20058;-73
2023/10/12 08:06:57;;;;;;;9.55;3.33;;;19.20;99.90;;;;;;4938573;28;20436;-72
2023/10/12 08:11:53;;;;;;;29.75;3.58;;;19.10;99.90;;;;;;4937200;28;20560;-73
2023/10/12 08:14:41;;;;;;;11.98;2.72;;;19.10;99.90;;;;;;4934102;28;20023;-73
2023/10/12 08:20:42;;;;;;;6.53;2.75;;;19.40;99.90;;;;;;4937310;28;20584;-72
2023/10/12 08:22:41;;;;;;;7.30;2.35;;;19.50;99.90;;;;;;4934062;29;20067;-72
2023/10/12 08:25:07;;;;;;;7.40;3.22;;;19.30;99.90;;;;;;4937430;28;20051;-73
2023/10/12 08:27:52;;;;;;;9.77;3.40;;;19.30;99.90;;;;;;4935698;29;20055;-72
2023/10/12 08:30:44;;;;;;;8.07;2.72;;;19.30;99.90;;;;;;4949715;28;20045;-71
2023/10/12 08:33:14;;;;;;;7.90;2.92;;;19.30;99.90;;;;;;4939289;29;20031;-71
2023/10/12 08:36:23;;;;;;;6.57;3.28;;;19.60;99.90;;;;;;4946613;28;20036;-71
2023/10/12 08:38:40;;;;;;;6.03;2.75;;;19.60;99.90;;;;;;4948407;28;20043;-73
2023/10/12 08:44:04;;;;;;;7.82;3.42;;;20.00;99.90;;;;;;4946016;28;20054;-72
2023/10/12 08:52:18;;;;;;;4.85;2.00;;;20.30;99.90;;;;;;4955603;28;20499;-72
2023/10/12 08:54:53;;;;;;;11.90;2.75;;;20.40;99.90;;;;;;4944348;28;20024;-72
2023/10/12 08:57:37;;;;;;;10.93;2.47;;;20.60;99.90;;;;;;4947760;28;20036;-73
2023/10/12 09:02:53;;;;;;;7.80;2.97;;;20.80;99.90;;;;;;4950637;28;20031;-73
2023/10/12 09:05:24;;;;;;;7.60;2.10;;;20.80;99.90;;;;;;4946349;28;20078;-73
2023/10/12 09:08:08;;;;;;;16.80;2.83;;;21.00;99.90;;;;;;4940203;28;20110;-73
2023/10/12 09:13:34;;;;;;;4.18;1.98;;;21.20;99.90;;;;;;4939309;28;20109;-73
2023/10/12 09:16:05;;;;;;;5.38;2.15;;;21.00;99.90;;;;;;4941330;29;20035;-73
2023/10/12 09:19:26;;;;;;;11.13;2.03;;;21.10;99.90;;;;;;4937955;28;20039;-73
2023/10/12 09:23:50;;;;;;;4.82;2.17;;;21.30;99.90;;;;;;4935871;28;20107;-72
2023/10/12 09:26:30;;;;;;;5.82;1.98;;;21.10;99.90;;;;;;4948230;28;20028;-72
2023/10/12 09:36:43;;;;;;;6.82;2.72;;;20.90;99.90;;;;;;4943015;28;20110;-74
2023/10/12 09:39:15;;;;;;;8.25;2.55;;;20.90;99.90;;;;;;4935700;28;20078;-77
2023/10/12 09:41:54;;;;;;;13.82;2.50;;;20.70;99.90;;;;;;4940775;28;20032;-74
2023/10/12 09:44:26;;;;;;;8.15;2.70;;;20.80;99.90;;;;;;4944532;28;20029;-72
2023/10/12 09:46:57;;;;;;;5.65;2.53;;;20.90;99.90;;;;;;4943577;28;20042;-76
2023/10/12 09:49:27;;;;;;;7.28;2.38;;;20.70;99.90;;;;;;4949409;28;20027;-70
2023/10/12 09:52:13;;;;;;;6.15;3.22;;;20.60;99.90;;;;;;4944423;28;20111;-71
2023/10/12 09:55:06;;;;;;;4.40;2.08;;;20.40;99.90;;;;;;4931571;28;20024;-72
2023/10/12 09:57:36;;;;;;;11.05;3.30;;;20.30;99.90;;;;;;4947170;28;20392;-73
2023/10/12 10:00:18;;;;;;;5.72;2.65;;;20.40;99.90;;;;;;4954016;29;20031;-72
2023/10/12 10:02:49;;;;;;;13.63;3.45;;;20.40;99.90;;;;;;4969739;28;20023;-70
2023/10/12 10:08:06;;;;;;;6.97;3.22;;;20.60;99.90;;;;;;4925058;29;20111;-73
2023/10/12 10:10:35;;;;;;;7.60;2.67;;;20.60;99.90;;;;;;4941316;28;20254;-72
2023/10/12 10:13:14;;;;;;;7.53;2.40;;;20.50;99.90;;;;;;4937157;29;20058;-73
2023/10/12 10:15:56;;;;;;;8.38;2.67;;;20.50;99.90;;;;;;4939705;28;20035;-74
2023/10/12 10:18:25;;;;;;;5.32;2.40;;;20.50;99.90;;;;;;4952980;28;20047;-71
2023/10/12 10:20:58;;;;;;;8.75;2.30;;;20.40;99.90;;;;;;4952460;28;20476;-72
2023/10/12 10:23:24;;;;;;;9.07;2.80;;;20.40;99.90;;;;;;4944091;28;20027;-71
2023/10/12 10:28:58;;;;;;;5.88;2.42;;;20.40;99.90;;;;;;4936761;28;20576;-72
2023/10/12 10:31:35;;;;;;;6.25;2.00;;;20.30;99.90;;;;;;4956752;28;20035;-72
2023/10/12 10:34:07;;;;;;;4.05;2.30;;;20.40;99.90;;;;;;4937882;28;20035;-73
2023/10/12 10:36:34;;;;;;;14.82;2.90;;;20.30;99.90;;;;;;4949212;28;20034;-73
2023/10/12 10:41:54;;;;;;;6.50;2.57;;;20.30;99.90;;;;;;4933467;28;20075;-73
2023/10/12 10:44:22;;;;;;;14.07;3.00;;;20.30;99.90;;;;;;4948332;28;20039;-73
2023/10/12 10:47:00;;;;;;;13.15;2.22;;;20.30;99.90;;;;;;4944532;28;20037;-74
2023/10/12 10:49:36;;;;;;;8.93;2.33;;;20.40;99.90;;;;;;4940804;28;20035;-75
2023/10/12 10:52:26;;;;;;;6.38;2.08;;;20.40;99.90;;;;;;4937169;28;20751;-71
2023/10/12 10:54:59;;;;;;;14.17;3.67;;;20.40;99.90;;;;;;4950327;28;20126;-71
2023/10/12 10:57:25;;;;;;;11.48;3.65;;;20.40;99.90;;;;;;4951909;28;20483;-71
2023/10/12 10:59:52;;;;;;;10.80;2.65;;;20.50;99.90;;;;;;4947257;28;20075;-70
2023/10/12 11:02:21;;;;;;;7.43;2.60;;;20.40;99.90;;;;;;4962549;28;20036;-72
2023/10/12 11:04:47;;;;;;;8.30;2.50;;;20.30;99.90;;;;;;4938987;28;20036;-72
2023/10/12 11:07:17;;;;;;;4.28;2.13;;;20.20;99.90;;;;;;4947894;28;20063;-73
2023/10/12 11:12:30;;;;;;;6.07;2.30;;;20.40;99.90;;;;;;4935672;28;20040;-72
2023/10/12 11:15:00;;;;;;;8.98;2.92;;;20.40;99.90;;;;;;4938169;28;20032;-73
2023/10/12 11:17:55;;;;;;;9.63;3.13;;;20.40;99.90;;;;;;4943991;28;20329;-72
2023/10/12 11:20:27;;;;;;;9.00;2.78;;;20.40;99.90;;;;;;4947074;28;20031;-72
2023/10/12 11:22:59;;;;;;;9.45;2.30;;;20.20;99.90;;;;;;4953265;28;20114;-73
2023/10/12 11:25:27;;;;;;;10.90;2.90;;;20.10;99.90;;;;;;4950347;28;20031;-73
2023/10/12 11:27:53;;;;;;;7.80;2.92;;;20.10;99.90;;;;;;4939531;29;20024;-72
2023/10/12 11:30:36;;;;;;;6.47;2.90;;;20.10;99.90;;;;;;4939379;28;20448;-72
2023/10/12 11:33:09;;;;;;;5.65;2.67;;;20.00;99.90;;;;;;4933781;28;20507;-72
2023/10/12 11:35:43;;;;;;;10.15;2.83;;;20.00;99.90;;;;;;4941757;29;20090;-72
2023/10/12 11:38:19;;;;;;;10.15;3.25;;;19.90;99.90;;;;;;4948797;28;20043;-72
2023/10/12 11:40:55;;;;;;;11.43;3.17;;;19.80;99.90;;;;;;4951928;28;20118;-72
2023/10/12 11:43:49;;;;;;;8.35;3.30;;;19.50;99.90;;;;;;4959208;28;20062;-76
2023/10/12 11:46:15;;;;;;;6.35;3.47;;;19.30;99.90;;;;;;4925856;28;20026;-73
2023/10/12 11:48:41;;;;;;;10.90;3.28;;;19.30;99.90;;;;;;4934336;28;20028;-74
2023/10/12 11:51:11;;;;;;;9.07;3.17;;;19.40;99.90;;;;;;4952926;28;20094;-70
2023/10/12 11:53:41;;;;;;;10.63;3.90;;;19.30;99.90;;;;;;4950277;28;20114;-72
2023/10/12 11:56:24;;;;;;;;;;;;;;;;;;;;;
2023/10/12 11:58:40;;;;;;;7.90;3.15;;;19.20;99.90;;;;;;4940255;28;20035;-71
2023/10/12 12:01:09;;;;;;;15.75;4.57;;;19.20;99.90;;;;;;4938104;28;20032;-71
2023/10/12 12:03:39;;;;;;;8.90;3.38;;;19.20;99.90;;;;;;4951452;28;20395;-72
2023/10/12 12:06:11;;;;;;;18.33;3.83;;;19.10;99.90;;;;;;4937034;28;20031;-73
2023/10/12 12:08:37;;;;;;;7.40;2.83;;;19.10;99.90;;;;;;4942709;28;20027;-74
2023/10/12 12:11:04;;;;;;;6.82;3.78;;;19.10;99.90;;;;;;4939088;28;20107;-71
2023/10/12 12:13:35;;;;;;;6.75;2.58;;;19.10;99.90;;;;;;4948970;28;20043;-71
2023/10/12 12:16:01;;;;;;;;;;;19.00;99.90;;;;;;4939664;28;20028;-73
2023/10/12 12:18:27;;;;;;;7.05;3.00;;;18.90;99.90;;;;;;4934867;28;20547;-72
2023/10/12 12:20:56;;;;;;;8.25;3.28;;;18.80;99.90;;;;;;4943146;28;20102;-73
2023/10/12 12:23:34;;;;;;;9.35;3.55;;;18.80;99.90;;;;;;4945685;28;20023;-73
2023/10/12 12:26:07;;;;;;;7.30;3.28;;;18.70;99.90;;;;;;4939626;28;20651;-74
2023/10/12 12:28:43;;;;;;;8.57;3.65;;;18.70;99.90;;;;;;4955103;28;20088;-74
2023/10/12 12:31:15;;;;;;;6.20;3.05;;;18.70;99.90;;;;;;4951724;28;20031;-73
2023/10/12 12:33:43;;;;;;;6.43;2.53;;;18.60;99.90;;;;;;4956508;28;20031;-73
2023/10/12 12:36:13;;;;;;;4.75;2.55;;;18.60;99.90;;;;;;4947405;28;20060;-73
2023/10/12 12:41:06;;;;;;;13.73;3.47;;;18.70;99.90;;;;;;4941723;28;20032;-72
2023/10/12 12:43:35;;;;;;;10.45;3.40;;;18.60;99.90;;;;;;4921146;29;20271;-72
2023/10/12 12:46:01;;;;;;;15.98;3.75;;;18.60;99.90;;;;;;4942194;28;20020;-73
2023/10/12 12:48:27;;;;;;;24.92;4.53;;;18.50;99.90;;;;;;4938852;28;20031;-75
2023/10/12 12:50:52;;;;;;;5.50;3.08;;;18.40;99.90;;;;;;4943748;28;20040;-74
2023/10/12 12:53:18;;;;;;;9.57;4.07;;;18.40;99.90;;;;;;4945171;28;20040;-73
2023/10/12 12:55:46;;;;;;;8.48;3.38;;;18.40;99.90;;;;;;4944955;28;20027;-72
2023/10/12 12:58:17;;;;;;;6.18;2.65;;;18.40;99.90;;;;;;4954097;28;20040;-73
2023/10/12 13:00:47;;;;;;;8.80;3.53;;;18.40;99.90;;;;;;4960031;28;20040;-76
2023/10/12 13:03:17;;;;;;;5.63;2.90;;;18.50;99.90;;;;;;4961129;28;20070;-74
2023/10/12 13:05:42;;;;;;;9.20;3.15;;;18.50;99.90;;;;;;4959244;28;20038;-73
2023/10/12 13:08:11;;;;;;;11.05;3.28;;;18.50;99.90;;;;;;4949443;28;20019;-74
2023/10/12 13:10:40;;;;;;;8.13;3.90;;;18.60;99.90;;;;;;4948130;28;20026;-73
2023/10/12 13:13:06;;;;;;;7.18;2.97;;;18.60;99.90;;;;;;4955059;28;20467;-72
2023/10/12 13:15:32;;;;;;;10.80;3.40;;;18.60;99.90;;;;;;4946240;28;20488;-73
2023/10/12 13:18:02;;;;;;;9.82;3.42;;;18.60;99.90;;;;;;4954936;28;20023;-69
2023/10/12 13:20:31;;;;;;;13.52;3.90;;;18.60;99.90;;;;;;4951710;28;20778;-72
2023/10/12 13:22:56;;;;;;;8.07;3.53;;;18.60;99.90;;;;;;4937315;28;20039;-71
2023/10/12 13:25:25;;;;;;;6.63;2.58;;;18.60;99.90;;;;;;4935694;28;20047;-71
2023/10/12 13:27:52;;;;;;;8.65;3.22;;;18.60;99.90;;;;;;4936681;28;20031;-71
2023/10/12 13:30:27;;;;;;;11.65;3.83;;;18.60;99.90;;;;;;4947289;28;20496;-72
2023/10/12 13:32:59;;;;;;;7.00;3.15;;;18.60;99.90;;;;;;4920400;29;20484;-70
2023/10/12 13:35:31;;;;;;;10.13;3.35;;;18.60;99.90;;;;;;4955339;28;20035;-72
2023/10/12 13:38:03;;;;;;;7.93;3.95;;;18.60;99.90;;;;;;4936821;28;20031;-72
2023/10/12 13:40:35;;;;;;;11.18;3.25;;;18.70;99.90;;;;;;4941953;28;20035;-71
2023/10/12 13:43:07;;;;;;;9.07;3.65;;;18.70;99.90;;;;;;4937922;28;20032;-73
2023/10/12 13:45:33;;;;;;;29.33;3.58;;;18.80;99.90;;;;;;4946731;28;20035;-71
2023/10/12 13:47:59;;;;;;;8.10;3.60;;;18.80;99.90;;;;;;4944910;28;20376;-71
2023/10/12 13:50:25;;;;;;;7.97;3.22;;;18.80;99.90;;;;;;4950113;28;20035;-71
2023/10/12 13:52:53;;;;;;;9.48;3.42;;;18.90;99.90;;;;;;4950702;28;20139;-70
2023/10/12 13:55:19;;;;;;;6.00;3.05;;;18.90;99.90;;;;;;4948638;28;20038;-71
2023/10/12 13:58:00;;;;;;;8.52;3.22;;;19.00;99.90;;;;;;4937066;29;20510;-70
2023/10/12 14:00:26;;;;;;;8.57;3.22;;;18.90;99.90;;;;;;4953822;28;20506;-71
2023/10/12 14:02:56;;;;;;;11.18;3.67;;;19.00;99.90;;;;;;4937253;29;20086;-71
2023/10/12 14:05:29;;;;;;;12.88;4.25;;;19.10;99.90;;;;;;4945410;28;20091;-69
2023/10/12 14:07:58;;;;;;;5.50;2.40;;;19.00;99.90;;;;;;4949343;28;20115;-69
2023/10/12 14:10:26;;;;;;;5.55;2.90;;;19.10;99.90;;;;;;4951876;28;20039;-70
2023/10/12 14:12:53;;;;;;;7.00;3.50;;;19.10;99.90;;;;;;4952989;28;20031;-70
2023/10/12 14:15:27;;;;;;;13.52;3.20;;;19.20;99.90;;;;;;4949818;28;20024;-70
2023/10/12 14:17:56;;;;;;;10.75;3.20;;;19.00;99.90;;;;;;4913311;28;20047;-70
2023/10/12 14:20:28;;;;;;;10.27;2.88;;;19.10;99.90;;;;;;4946652;28;20104;-70
2023/10/12 14:23:05;;;;;;;9.27;3.35;;;19.10;99.90;;;;;;4948483;28;20039;-70
2023/10/12 14:25:45;;;;;;;8.00;3.15;;;19.20;99.90;;;;;;4939421;28;20546;-70
2023/10/12 14:28:16;;;;;;;9.13;2.80;;;19.20;99.90;;;;;;4936307;28;20110;-70
2023/10/12 14:30:50;;;;;;;23.58;9.70;;;19.20;99.90;;;;;;4956005;28;20039;-70
2023/10/12 14:33:20;;;;;;;8.15;3.47;;;19.20;99.90;;;;;;4934748;28;20110;-70
2023/10/12 14:35:48;;;;;;;10.35;3.65;;;19.30;99.90;;;;;;4956197;28;20032;-74
2023/10/12 14:38:16;;;;;;;8.23;3.53;;;19.20;99.90;;;;;;4936300;28;20040;-70
2023/10/12 14:40:44;;;;;;;7.88;3.15;;;19.10;99.90;;;;;;4940486;28;20062;-70
2023/10/12 14:43:14;;;;;;;6.53;3.00;;;19.10;99.90;;;;;;4943148;28;20036;-71
2023/10/12 14:45:48;;;;;;;13.80;3.65;;;19.10;99.90;;;;;;4941377;28;20119;-72
2023/10/12 14:48:17;;;;;;;8.88;3.65;;;18.90;99.90;;;;;;4951002;28;20023;-70
2023/10/12 14:50:49;;;;;;;7.65;3.28;;;19.00;99.90;;;;;;4940428;28;20388;-68
2023/10/12 14:53:21;;;;;;;10.77;3.72;;;18.90;99.90;;;;;;4950460;28;20031;-68
2023/10/12 14:55:51;;;;;;;8.10;3.50;;;18.90;99.90;;;;;;4928125;29;20414;-68
2023/10/12 14:58:19;;;;;;;9.90;3.33;;;18.90;99.90;;;;;;4948298;28;20039;-68
2023/10/12 15:00:45;;;;;;;9.65;3.63;;;18.90;99.90;;;;;;4948405;28;20110;-68
2023/10/12 15:03:15;;;;;;;9.35;3.55;;;19.10;99.90;;;;;;4933062;28;20416;-68
2023/10/12 15:05:42;;;;;;;12.00;3.95;;;18.90;99.90;;;;;;4940130;28;20024;-68
2023/10/12 15:08:09;;;;;;;10.20;3.45;;;19.00;99.90;;;;;;4932874;28;20039;-68
2023/10/12 15:10:45;;;;;;;12.20;4.10;;;19.10;99.90;;;;;;4944551;28;20020;-68
2023/10/12 15:13:16;;;;;;;7.90;3.30;;;19.00;99.90;;;;;;4935902;28;20495;-67
2023/10/12 15:15:47;;;;;;;8.07;4.18;;;18.90;99.90;;;;;;4938721;28;20036;-67
2023/10/12 15:18:24;;;;;;;9.18;3.78;;;18.90;99.90;;;;;;4933999;28;20036;-67
2023/10/12 15:20:53;;;;;;;8.20;4.38;;;18.90;99.90;;;;;;4941277;28;20027;-67
2023/10/12 15:23:21;;;;;;;6.45;3.30;;;19.00;99.90;;;;;;4945744;28;20554;-68
2023/10/12 15:25:48;;;;;;;7.13;3.60;;;19.00;99.90;;;;;;4934475;28;20031;-69
2023/10/12 15:28:15;;;;;;;7.15;3.50;;;19.00;99.90;;;;;;4938679;28;20059;-68
2023/10/12 15:30:45;;;;;;;14.35;4.43;;;18.80;99.90;;;;;;4934382;28;20051;-69
2023/10/12 15:33:11;;;;;;;8.57;3.80;;;18.90;99.90;;;;;;4939399;28;20054;-68
2023/10/12 15:35:37;;;;;;;7.38;3.25;;;18.90;99.90;;;;;;4934409;28;20496;-68
2023/10/12 15:38:03;;;;;;;9.48;3.78;;;18.80;99.90;;;;;;4936929;28;20070;-68
2023/10/12 15:40:30;;;;;;;7.47;3.33;;;18.70;99.90;;;;;;4934042;28;20039;-69
2023/10/12 15:42:59;;;;;;;11.07;4.55;;;18.60;99.90;;;;;;4937592;28;20099;-68
2023/10/12 15:45:26;;;;;;;12.25;4.40;;;18.70;99.90;;;;;;4932832;28;20079;-68
2023/10/12 15:47:56;;;;;;;9.70;4.40;;;18.60;99.90;;;;;;4945807;28;20094;-69
2023/10/12 15:50:24;;;;;;;12.43;4.20;;;18.60;99.90;;;;;;4966806;23;20052;-68
2023/10/12 15:52:50;;;;;;;5.38;3.17;;;18.70;99.90;;;;;;4967310;28;20073;-67
2023/10/12 15:55:23;;;;;;;8.43;3.92;;;18.70;99.90;;;;;;4976979;28;20090;-68